Аэропорт: Николаев. Николаев

ICAO: UKON

METAR:
2018/05/20 14:00
UKON 201400Z 06007MPS 9999 VCTS SCT021CB BKN100 17/12 Q1015 NOSIG
METAR:
2010/06/02 12:21
TAF 
      AMD TAF 
      AMD UKON 021221Z 0212/0224 12007G14MPS 9999 BKN010 BKN020CB 
      TEMPO 0212/0221 VRB10G19MPS 3100 -TSRAGR SQ SCT005 BKN015CB PROB40 
      TEMPO 0212/0221 0600 +SHRA BKN002 BKN015CB TX30/0212Z TN22/0221Z